createdAt,value
2023-11-02T00:00:39.111Z,16.25
2023-11-02T00:01:39.053Z,16.27
2023-11-02T00:02:39.114Z,16.18
2023-11-02T00:03:39.099Z,16.03
2023-11-02T00:04:39.041Z,15.79
2023-11-02T00:05:39.044Z,15.75
2023-11-02T00:06:39.291Z,15.52
2023-11-02T00:07:39.017Z,15.64
2023-11-02T00:08:38.995Z,15.78
2023-11-02T00:09:38.979Z,15.78
2023-11-02T00:10:38.945Z,15.88
2023-11-02T00:11:39.021Z,15.46
2023-11-02T00:12:38.937Z,15.33
2023-11-02T00:13:38.923Z,15.49
2023-11-02T00:14:38.917Z,15.74
2023-11-02T00:15:38.932Z,15.72
2023-11-02T00:16:38.881Z,15.61
2023-11-02T00:17:38.994Z,15.82
2023-11-02T00:18:38.905Z,15.93
2023-11-02T00:19:38.950Z,15.88
2023-11-02T00:20:38.849Z,15.46
2023-11-02T00:21:38.824Z,15.48
2023-11-02T00:22:38.876Z,15.54
2023-11-02T00:23:38.838Z,15.68
2023-11-02T00:24:38.778Z,15.81
2023-11-02T00:25:38.800Z,15.70
2023-11-02T00:26:38.775Z,15.85
2023-11-02T00:27:38.807Z,15.86
2023-11-02T00:28:38.814Z,15.92
2023-11-02T00:29:38.767Z,16.01
2023-11-02T00:30:38.765Z,15.94
2023-11-02T00:31:38.752Z,15.88
2023-11-02T00:32:38.738Z,15.92
2023-11-02T00:33:38.872Z,15.89
2023-11-02T00:34:38.697Z,15.94
2023-11-02T00:35:38.674Z,15.93
2023-11-02T00:36:38.666Z,15.89
2023-11-02T00:37:38.630Z,15.97
2023-11-02T00:38:38.640Z,16.07
2023-11-02T00:39:38.620Z,16.14
2023-11-02T00:40:38.634Z,16.15
2023-11-02T00:41:38.627Z,16.20
2023-11-02T00:42:38.598Z,16.01
2023-11-02T00:43:38.677Z,15.99
2023-11-02T00:44:38.609Z,16.04
2023-11-02T00:45:38.584Z,16.15
2023-11-02T00:46:38.571Z,16.15
2023-11-02T00:47:38.616Z,16.18
2023-11-02T00:48:38.607Z,15.94
2023-11-02T00:49:38.514Z,15.89
2023-11-02T00:50:38.531Z,15.93
2023-11-02T00:51:38.480Z,15.96
2023-11-02T00:52:38.511Z,15.99
2023-11-02T00:53:38.478Z,15.86
2023-11-02T00:54:38.476Z,15.82
2023-11-02T00:55:38.567Z,15.70
2023-11-02T00:56:38.438Z,15.52
2023-11-02T00:57:38.425Z,15.54
2023-11-02T00:58:38.429Z,15.24
2023-11-02T00:59:38.388Z,15.31
2023-11-02T01:00:38.409Z,15.27
2023-11-02T01:01:38.386Z,15.42
2023-11-02T01:02:38.381Z,15.36
2023-11-02T01:03:38.411Z,15.12
2023-11-02T01:04:38.335Z,15.28
2023-11-02T01:05:38.347Z,15.49
2023-11-02T01:06:38.360Z,15.66
2023-11-02T01:07:38.366Z,15.24
2023-11-02T01:08:38.296Z,15.12
2023-11-02T01:09:38.313Z,15.23
2023-11-02T01:10:38.284Z,15.33
2023-11-02T01:11:38.272Z,15.30
2023-11-02T01:12:38.516Z,15.15
2023-11-02T01:13:38.257Z,15.26
2023-11-02T01:14:38.212Z,15.36
2023-11-02T01:15:38.226Z,15.48
2023-11-02T01:16:38.196Z,15.56
2023-11-02T01:17:38.192Z,15.54
2023-11-02T01:18:38.275Z,15.48
2023-11-02T01:19:38.160Z,15.41
2023-11-02T01:20:38.190Z,15.43
2023-11-02T01:21:38.144Z,15.52
2023-11-02T01:22:38.144Z,15.51
2023-11-02T01:23:38.154Z,15.42
2023-11-02T01:24:38.135Z,15.54
2023-11-02T01:25:38.090Z,15.79
2023-11-02T01:26:38.119Z,15.96
2023-11-02T01:27:38.083Z,16.07
2023-11-02T01:28:38.109Z,16.20
2023-11-02T01:29:38.098Z,16.04
2023-11-02T01:30:38.038Z,15.99
2023-11-02T01:31:38.159Z,15.66
2023-11-02T01:32:38.098Z,15.67
2023-11-02T01:33:38.177Z,15.84
2023-11-02T01:34:38.030Z,15.88
2023-11-02T01:35:37.984Z,15.74
2023-11-02T01:36:37.997Z,15.57
2023-11-02T01:37:38.005Z,15.56
2023-11-02T01:38:37.960Z,15.81
2023-11-02T01:39:37.936Z,15.72
2023-11-02T01:40:38.030Z,15.60
2023-11-02T01:41:37.948Z,15.51
2023-11-02T01:42:37.920Z,15.23
2023-11-02T01:43:37.924Z,15.28
2023-11-02T01:44:37.890Z,15.49
2023-11-02T01:45:37.922Z,15.63
2023-11-02T01:46:37.843Z,15.67
2023-11-02T01:47:37.865Z,15.39
2023-11-02T01:48:37.963Z,15.33
2023-11-02T01:49:37.880Z,15.46
2023-11-02T01:50:37.821Z,15.70
2023-11-02T01:51:37.809Z,15.94
2023-11-02T01:52:37.785Z,15.75
2023-11-02T01:53:37.808Z,15.59
2023-11-02T01:54:37.798Z,15.63
2023-11-02T01:55:37.810Z,15.68
2023-11-02T01:56:37.747Z,15.64
2023-11-02T01:57:37.724Z,15.57
2023-11-02T01:58:37.777Z,15.66
2023-11-02T01:59:37.777Z,15.64
2023-11-02T02:00:37.726Z,15.68
2023-11-02T02:01:37.674Z,15.81
2023-11-02T02:02:37.689Z,15.54
2023-11-02T02:03:37.831Z,15.41
2023-11-02T02:04:37.663Z,15.11
2023-11-02T02:05:37.801Z,15.01
2023-11-02T02:06:37.641Z,15.09
2023-11-02T02:07:37.645Z,15.20
2023-11-02T02:08:37.605Z,15.38
2023-11-02T02:09:37.616Z,15.48
2023-11-02T02:10:37.630Z,15.31
2023-11-02T02:11:37.651Z,15.24
2023-11-02T02:12:37.644Z,15.26
2023-11-02T02:13:37.597Z,15.19
2023-11-02T02:14:37.600Z,15.21
2023-11-02T02:15:37.621Z,15.19
2023-11-02T02:16:37.576Z,15.36
2023-11-02T02:17:37.639Z,15.41
2023-11-02T02:18:37.755Z,15.48
2023-11-02T02:19:37.541Z,15.56
2023-11-02T02:20:37.549Z,15.42
2023-11-02T02:21:37.590Z,15.28
2023-11-02T02:22:37.608Z,15.23
2023-11-02T02:23:37.494Z,15.23
2023-11-02T02:24:37.441Z,15.26
2023-11-02T02:25:37.450Z,15.39
2023-11-02T02:26:37.431Z,15.43
2023-11-02T02:27:37.440Z,15.31
2023-11-02T02:28:37.500Z,15.17
2023-11-02T02:29:37.363Z,15.26
2023-11-02T02:30:37.367Z,15.35
2023-11-02T02:31:37.343Z,15.38
2023-11-02T02:32:37.397Z,15.08
2023-11-02T02:33:37.404Z,15.03
2023-11-02T02:34:37.377Z,14.99
2023-11-02T02:35:37.298Z,15.06
2023-11-02T02:36:37.292Z,14.84
2023-11-02T02:37:37.266Z,14.87
2023-11-02T02:38:37.258Z,15.13
2023-11-02T02:39:37.246Z,15.19
2023-11-02T02:40:37.273Z,15.26
2023-11-02T02:41:37.234Z,15.28
2023-11-02T02:42:37.224Z,15.38
2023-11-02T02:43:37.221Z,15.28
2023-11-02T02:44:37.213Z,15.19
2023-11-02T02:45:37.192Z,15.36
2023-11-02T02:46:37.183Z,15.28
2023-11-02T02:47:37.296Z,15.20
2023-11-02T02:48:37.201Z,15.06
2023-11-02T02:49:37.155Z,15.19
2023-11-02T02:50:37.222Z,15.20
2023-11-02T02:51:37.115Z,15.03
2023-11-02T02:52:37.095Z,15.08
2023-11-02T02:53:37.124Z,15.19
2023-11-02T02:54:37.085Z,15.28
2023-11-02T02:55:37.097Z,15.30
2023-11-02T02:56:37.128Z,15.41
2023-11-02T02:57:37.061Z,15.21
2023-11-02T02:58:37.074Z,15.24
2023-11-02T02:59:37.071Z,15.11
2023-11-02T03:00:37.101Z,14.87
2023-11-02T03:01:36.998Z,14.95
2023-11-02T03:02:37.145Z,14.93
2023-11-02T03:03:37.039Z,14.65
2023-11-02T03:04:37.038Z,14.34
2023-11-02T03:05:37.090Z,14.19
2023-11-02T03:06:36.951Z,14.14
2023-11-02T03:07:37.305Z,14.27
2023-11-02T03:08:36.954Z,14.27
2023-11-02T03:09:36.907Z,14.43
2023-11-02T03:10:36.884Z,14.28
2023-11-02T03:11:36.886Z,14.43
2023-11-02T03:12:36.906Z,14.44
2023-11-02T03:13:36.890Z,14.49
2023-11-02T03:14:36.866Z,14.50
2023-11-02T03:15:36.864Z,14.52
2023-11-02T03:16:36.851Z,14.52
2023-11-02T03:17:36.849Z,14.52
2023-11-02T03:18:36.843Z,14.35
2023-11-02T03:19:36.898Z,14.24
2023-11-02T03:20:36.782Z,13.87
2023-11-02T03:21:36.828Z,14.07
2023-11-02T03:22:36.781Z,14.04
2023-11-02T03:23:36.739Z,14.02
2023-11-02T03:24:36.816Z,14.04
2023-11-02T03:25:36.733Z,13.83
2023-11-02T03:26:36.796Z,13.95
2023-11-02T03:27:36.694Z,14.09
2023-11-02T03:28:36.725Z,14.16
2023-11-02T03:29:36.688Z,13.89
2023-11-02T03:30:36.751Z,13.79
2023-11-02T03:31:36.653Z,13.88
2023-11-02T03:32:36.715Z,13.83
2023-11-02T03:33:36.681Z,13.77
2023-11-02T03:34:36.630Z,13.69
2023-11-02T03:35:36.676Z,13.77
2023-11-02T03:36:37.188Z,13.83
2023-11-02T03:37:36.616Z,13.74
2023-11-02T03:38:36.578Z,13.54
2023-11-02T03:39:36.568Z,13.76
2023-11-02T03:40:36.553Z,13.80
2023-11-02T03:41:36.608Z,13.79
2023-11-02T03:42:36.540Z,14.02
2023-11-02T03:43:36.539Z,14.09
2023-11-02T03:44:36.513Z,14.35
2023-11-02T03:45:36.550Z,14.43
2023-11-02T03:46:36.490Z,14.34
2023-11-02T03:47:36.518Z,14.38
2023-11-02T03:48:36.547Z,14.38
2023-11-02T03:49:36.457Z,14.49
2023-11-02T03:50:36.450Z,14.50
2023-11-02T03:51:36.429Z,14.39
2023-11-02T03:52:36.433Z,14.60
2023-11-02T03:53:36.430Z,14.62
2023-11-02T03:54:36.391Z,14.68
2023-11-02T03:55:36.395Z,14.56
2023-11-02T03:56:36.409Z,14.52
2023-11-02T03:57:36.381Z,14.46
2023-11-02T03:58:36.388Z,14.42
2023-11-02T03:59:36.341Z,14.62
2023-11-02T04:00:36.356Z,14.67
2023-11-02T04:01:36.320Z,14.72
2023-11-02T04:02:36.349Z,14.67
2023-11-02T04:03:36.320Z,14.53
2023-11-02T04:04:36.394Z,14.74
2023-11-02T04:05:36.329Z,14.75
2023-11-02T04:06:36.339Z,14.87
2023-11-02T04:07:36.258Z,15.05
2023-11-02T04:08:36.231Z,15.02
2023-11-02T04:09:36.227Z,14.91
2023-11-02T04:10:36.245Z,14.99
2023-11-02T04:11:36.252Z,15.12
2023-11-02T04:12:36.198Z,15.17
2023-11-02T04:13:36.194Z,15.17
2023-11-02T04:14:36.166Z,15.13
2023-11-02T04:15:36.257Z,14.83
2023-11-02T04:16:36.157Z,14.83
2023-11-02T04:17:36.387Z,14.93
2023-11-02T04:18:36.187Z,14.94
2023-11-02T04:19:36.138Z,14.83
2023-11-02T04:20:36.125Z,14.90
2023-11-02T04:21:36.116Z,15.03
2023-11-02T04:22:36.091Z,15.08
2023-11-02T04:23:36.070Z,15.08
2023-11-02T04:24:36.072Z,14.64
2023-11-02T04:25:36.041Z,14.74
2023-11-02T04:26:36.107Z,14.86
2023-11-02T04:27:36.123Z,14.80
2023-11-02T04:28:36.033Z,14.80
2023-11-02T04:29:36.003Z,14.72
2023-11-02T04:30:36.072Z,14.68
2023-11-02T04:31:36.009Z,14.75
2023-11-02T04:32:36.013Z,14.65
2023-11-02T04:33:36.048Z,14.54
2023-11-02T04:34:35.989Z,14.84
2023-11-02T04:35:35.947Z,14.68
2023-11-02T04:36:35.953Z,14.75
2023-11-02T04:37:35.930Z,14.74
2023-11-02T04:38:35.913Z,14.99
2023-11-02T04:39:35.991Z,14.74
2023-11-02T04:40:35.868Z,14.64
2023-11-02T04:41:35.857Z,14.90
2023-11-02T04:42:35.919Z,14.83
2023-11-02T04:43:35.858Z,14.83
2023-11-02T04:44:35.817Z,14.88
2023-11-02T04:45:35.901Z,14.78
2023-11-02T04:46:35.819Z,14.94
2023-11-02T04:47:35.906Z,14.99
2023-11-02T04:48:35.824Z,14.87
2023-11-02T04:49:35.931Z,14.80
2023-11-02T04:50:35.807Z,14.80
2023-11-02T04:51:35.762Z,14.72
2023-11-02T04:52:35.773Z,14.75
2023-11-02T04:53:35.725Z,14.71
2023-11-02T04:54:35.750Z,14.65
2023-11-02T04:55:35.699Z,14.35
2023-11-02T04:56:35.796Z,14.17
2023-11-02T04:57:35.716Z,14.27
2023-11-02T04:58:35.704Z,14.47
2023-11-02T04:59:35.670Z,14.38
2023-11-02T05:00:35.720Z,14.46
2023-11-02T05:01:35.695Z,14.47
2023-11-02T05:02:35.949Z,14.54
2023-11-02T05:03:35.741Z,14.16
2023-11-02T05:04:35.662Z,14.06
2023-11-02T05:05:35.649Z,14.10
2023-11-02T05:06:35.602Z,13.92
2023-11-02T05:07:35.610Z,13.81
2023-11-02T05:08:35.621Z,13.88
2023-11-02T05:09:35.639Z,14.01
2023-11-02T05:10:35.540Z,14.09
2023-11-02T05:11:35.543Z,13.99
2023-11-02T05:12:35.665Z,14.27
2023-11-02T05:13:35.507Z,14.24
2023-11-02T05:14:35.541Z,14.19
2023-11-02T05:15:35.590Z,13.94
2023-11-02T05:16:35.464Z,14.07
2023-11-02T05:17:35.468Z,14.09
2023-11-02T05:18:35.500Z,14.02
2023-11-02T05:19:35.501Z,13.87
2023-11-02T05:20:35.440Z,13.83
2023-11-02T05:21:35.431Z,13.99
2023-11-02T05:22:35.443Z,13.99
2023-11-02T05:23:35.373Z,14.12
2023-11-02T05:24:35.424Z,14.09
2023-11-02T05:25:35.389Z,14.12
2023-11-02T05:26:35.357Z,14.34
2023-11-02T05:27:35.414Z,14.42
2023-11-02T05:28:35.357Z,14.17
2023-11-02T05:29:35.325Z,14.27
2023-11-02T05:30:35.398Z,14.46
2023-11-02T05:31:35.342Z,14.50
2023-11-02T05:32:35.348Z,14.24
2023-11-02T05:33:35.295Z,14.31
2023-11-02T05:34:35.296Z,14.29
2023-11-02T05:35:35.291Z,13.98
2023-11-02T05:36:35.268Z,13.79
2023-11-02T05:37:35.270Z,14.06
2023-11-02T05:38:36.158Z,13.92
2023-11-02T05:39:35.323Z,13.83
2023-11-02T05:40:35.186Z,13.81
2023-11-02T05:41:35.232Z,13.88
2023-11-02T05:42:35.213Z,13.81
2023-11-02T05:43:37.480Z,13.95
2023-11-02T05:44:35.401Z,14.01
2023-11-02T05:45:35.166Z,14.34
2023-11-02T05:46:35.274Z,14.31
2023-11-02T05:47:35.282Z,14.01
2023-11-02T05:48:35.140Z,13.70
2023-11-02T05:49:35.255Z,13.88
2023-11-02T05:50:36.226Z,14.01
2023-11-02T05:51:35.300Z,14.12
2023-11-02T05:52:35.043Z,14.10
2023-11-02T05:53:35.056Z,13.89
2023-11-02T05:54:35.138Z,13.74
2023-11-02T05:55:35.012Z,13.63
2023-11-02T05:56:35.006Z,13.30
2023-11-02T05:57:35.135Z,13.30
2023-11-02T05:58:34.998Z,13.24
2023-11-02T05:59:34.976Z,13.47
2023-11-02T06:00:35.064Z,13.73
2023-11-02T06:01:34.947Z,13.59
2023-11-02T06:02:34.974Z,13.71
2023-11-02T06:03:35.078Z,13.52
2023-11-02T06:04:34.960Z,13.30
2023-11-02T06:05:34.922Z,13.47
2023-11-02T06:06:35.123Z,13.44
2023-11-02T06:07:34.874Z,13.38
2023-11-02T06:08:34.864Z,13.56
2023-11-02T06:09:34.911Z,13.44
2023-11-02T06:10:34.847Z,13.24
2023-11-02T06:11:34.920Z,13.30
2023-11-02T06:12:34.900Z,13.54
2023-11-02T06:13:34.829Z,13.84
2023-11-02T06:14:34.810Z,13.77
2023-11-02T06:15:34.830Z,13.43
2023-11-02T06:16:34.781Z,13.55
2023-11-02T06:17:34.798Z,13.52
2023-11-02T06:18:34.806Z,13.29
2023-11-02T06:19:34.834Z,13.44
2023-11-02T06:20:34.724Z,13.47
2023-11-02T06:21:34.807Z,13.55
2023-11-02T06:22:34.733Z,13.49
2023-11-02T06:23:34.712Z,13.54
2023-11-02T06:24:35.000Z,13.79
2023-11-02T06:25:34.689Z,13.83
2023-11-02T06:26:34.663Z,13.77
2023-11-02T06:27:34.666Z,13.56
2023-11-02T06:28:34.635Z,13.40
2023-11-02T06:29:34.693Z,13.44
2023-11-02T06:30:36.045Z,13.38
2023-11-02T06:31:34.758Z,13.54
2023-11-02T06:32:34.660Z,13.43
2023-11-02T06:33:35.466Z,13.63
2023-11-02T06:34:35.297Z,13.83
2023-11-02T06:35:34.606Z,13.71
2023-11-02T06:36:34.641Z,13.58
2023-11-02T06:37:34.567Z,13.56
2023-11-02T06:38:34.516Z,13.46
2023-11-02T06:39:34.606Z,13.58
2023-11-02T06:40:35.292Z,13.77
2023-11-02T06:41:34.662Z,13.80
2023-11-02T06:42:37.296Z,13.52
2023-11-02T06:43:34.730Z,13.54
2023-11-02T06:44:34.538Z,13.51
2023-11-02T06:45:34.685Z,13.43
2023-11-02T06:46:34.491Z,13.44
2023-11-02T06:47:34.680Z,13.56
2023-11-02T06:48:34.677Z,13.47
2023-11-02T06:49:34.565Z,13.27
2023-11-02T06:50:35.612Z,13.43
2023-11-02T06:51:34.853Z,13.62
2023-11-02T06:52:34.587Z,13.63
2023-11-02T06:53:34.788Z,13.55
2023-11-02T06:54:34.514Z,13.43
2023-11-02T06:55:34.484Z,13.41
2023-11-02T06:56:34.424Z,13.21
2023-11-02T06:57:34.497Z,13.20
2023-11-02T06:58:34.395Z,13.20
2023-11-02T06:59:34.382Z,13.21
2023-11-02T07:00:34.745Z,13.12
2023-11-02T07:01:34.384Z,13.07
2023-11-02T07:02:34.403Z,12.92
2023-11-02T07:03:34.553Z,13.17
2023-11-02T07:04:34.542Z,13.06
2023-11-02T07:05:34.372Z,13.12
2023-11-02T07:06:34.402Z,13.32
2023-11-02T07:07:35.205Z,13.11
2023-11-02T07:08:34.277Z,13.29
2023-11-02T07:09:34.278Z,13.30
2023-11-02T07:10:34.257Z,13.14
2023-11-02T07:11:34.301Z,13.00
2023-11-02T07:12:34.564Z,13.02
2023-11-02T07:13:34.242Z,13.09
2023-11-02T07:14:34.245Z,12.96
2023-11-02T07:15:35.128Z,12.97
2023-11-02T07:16:34.331Z,12.95
2023-11-02T07:17:34.342Z,13.00
2023-11-02T07:18:34.204Z,13.21
2023-11-02T07:19:34.235Z,13.24
2023-11-02T07:20:34.286Z,13.20
2023-11-02T07:21:34.175Z,12.97
2023-11-02T07:22:34.102Z,13.02
2023-11-02T07:23:34.040Z,13.25
2023-11-02T07:24:34.607Z,13.00
2023-11-02T07:25:34.179Z,13.07
2023-11-02T07:26:35.701Z,13.02
2023-11-02T07:27:34.244Z,13.14
2023-11-02T07:28:34.385Z,13.14
2023-11-02T07:29:34.061Z,13.15
2023-11-02T07:30:34.083Z,13.09
2023-11-02T07:31:34.163Z,12.93
2023-11-02T07:32:34.261Z,13.14
2023-11-02T07:33:34.074Z,13.15
2023-11-02T07:34:34.444Z,13.29
2023-11-02T07:35:34.085Z,13.02
2023-11-02T07:36:34.386Z,13.14
2023-11-02T07:37:34.148Z,13.24
2023-11-02T07:38:33.976Z,13.02
2023-11-02T07:39:34.583Z,13.03
2023-11-02T07:40:33.870Z,13.15
2023-11-02T07:41:34.018Z,13.18
2023-11-02T07:42:34.349Z,13.11
2023-11-02T07:43:34.100Z,13.17
2023-11-02T07:44:33.901Z,13.36
2023-11-02T07:45:34.262Z,13.06
2023-11-02T07:46:33.959Z,13.11
2023-11-02T07:47:33.813Z,13.03
2023-11-02T07:48:33.873Z,13.27
2023-11-02T07:49:33.922Z,13.17
2023-11-02T07:50:33.776Z,13.32
2023-11-02T07:51:33.961Z,13.61
2023-11-02T07:52:33.908Z,13.76
2023-11-02T07:53:33.781Z,13.73
2023-11-02T07:54:34.688Z,13.44
2023-11-02T07:55:33.662Z,13.55
2023-11-02T07:56:33.675Z,13.87
2023-11-02T07:57:33.865Z,14.19
2023-11-02T07:58:33.613Z,14.07
2023-11-02T07:59:33.672Z,13.59
2023-11-02T08:00:33.676Z,13.67
2023-11-02T08:01:33.630Z,13.67
2023-11-02T08:02:33.592Z,14.14
2023-11-02T08:03:33.766Z,14.47
2023-11-02T08:04:33.567Z,13.92
2023-11-02T08:05:33.560Z,13.84
2023-11-02T08:06:33.690Z,14.06
2023-11-02T08:07:33.581Z,14.29
2023-11-02T08:08:33.496Z,14.20
2023-11-02T08:09:33.506Z,14.25
2023-11-02T08:10:33.508Z,14.10
2023-11-02T08:11:33.467Z,14.25
2023-11-02T08:12:34.508Z,14.21
2023-11-02T08:13:33.491Z,14.38
2023-11-02T08:14:33.469Z,14.43
2023-11-02T08:15:33.410Z,14.28
2023-11-02T08:16:33.408Z,14.19
2023-11-02T08:17:33.507Z,13.89
2023-11-02T08:18:33.428Z,13.80
2023-11-02T08:19:33.423Z,14.21
2023-11-02T08:20:33.384Z,14.53
2023-11-02T08:21:33.384Z,14.38
2023-11-02T08:22:33.348Z,14.14
2023-11-02T08:23:33.329Z,14.14
2023-11-02T08:24:33.347Z,14.35
2023-11-02T08:25:33.355Z,14.54
2023-11-02T08:26:33.337Z,14.81
2023-11-02T08:27:33.350Z,14.60
2023-11-02T08:28:34.618Z,14.90
2023-11-02T08:29:33.267Z,14.90
2023-11-02T08:30:33.337Z,14.91
2023-11-02T08:31:33.231Z,14.42
2023-11-02T08:32:33.279Z,14.44
2023-11-02T08:33:33.335Z,14.64
2023-11-02T08:34:33.360Z,14.57
2023-11-02T08:35:33.193Z,14.50
2023-11-02T08:36:33.517Z,14.28
2023-11-02T08:37:33.208Z,14.28
2023-11-02T08:38:33.197Z,14.04
2023-11-02T08:39:34.352Z,14.25
2023-11-02T08:40:33.248Z,14.49
2023-11-02T08:41:33.904Z,14.61
2023-11-02T08:42:33.214Z,14.49
2023-11-02T08:43:33.119Z,14.68
2023-11-02T08:44:33.148Z,14.38
2023-11-02T08:45:33.125Z,14.35
2023-11-02T08:46:33.078Z,14.39
2023-11-02T08:47:33.180Z,14.53
2023-11-02T08:48:33.109Z,14.39
2023-11-02T08:49:33.105Z,14.50
2023-11-02T08:50:33.061Z,14.52
2023-11-02T08:51:33.042Z,14.52
2023-11-02T08:52:33.009Z,14.31
2023-11-02T08:53:32.978Z,14.44
2023-11-02T08:54:33.009Z,14.54
2023-11-02T08:55:33.046Z,14.31
2023-11-02T08:56:32.963Z,14.27
2023-11-02T08:57:32.982Z,14.19
2023-11-02T08:58:33.028Z,14.13
2023-11-02T08:59:32.964Z,14.16
2023-11-02T09:00:32.970Z,14.16
2023-11-02T09:01:33.028Z,14.43
2023-11-02T09:02:32.990Z,14.61
2023-11-02T09:03:32.876Z,14.32
2023-11-02T09:04:32.909Z,14.57
2023-11-02T09:05:32.855Z,14.46
2023-11-02T09:06:32.930Z,14.25
2023-11-02T09:07:32.863Z,14.16
2023-11-02T09:08:32.806Z,14.61
2023-11-02T09:09:32.849Z,14.86
2023-11-02T09:10:32.865Z,15.06
2023-11-02T09:11:32.778Z,15.17
2023-11-02T09:12:32.856Z,14.61
2023-11-02T09:13:32.805Z,14.71
2023-11-02T09:14:32.731Z,14.72
2023-11-02T09:15:32.802Z,14.71
2023-11-02T09:16:32.726Z,14.64
2023-11-02T09:17:32.758Z,14.61
2023-11-02T09:18:32.725Z,14.43
2023-11-02T09:19:32.770Z,14.42
2023-11-02T09:20:32.662Z,14.32
2023-11-02T09:21:32.745Z,14.49
2023-11-02T09:22:32.721Z,14.52
2023-11-02T09:23:32.634Z,14.47
2023-11-02T09:24:32.693Z,14.68
2023-11-02T09:25:32.666Z,14.72
2023-11-02T09:26:32.618Z,14.87
2023-11-02T09:27:32.659Z,15.03
2023-11-02T09:28:32.592Z,15.08
2023-11-02T09:29:33.327Z,14.80
2023-11-02T09:30:33.165Z,14.67
2023-11-02T09:31:32.763Z,14.69
2023-11-02T09:32:32.556Z,14.68
2023-11-02T09:33:32.631Z,14.71
2023-11-02T09:34:32.790Z,14.67
2023-11-02T09:35:32.551Z,14.75
2023-11-02T09:36:32.653Z,14.78
2023-11-02T09:37:32.519Z,14.74
2023-11-02T09:38:32.463Z,15.11
2023-11-02T09:39:32.496Z,14.90
2023-11-02T09:40:32.436Z,14.95
2023-11-02T09:41:32.517Z,14.94
2023-11-02T09:42:32.466Z,15.03
2023-11-02T09:43:32.405Z,15.26
2023-11-02T09:44:32.400Z,15.45
2023-11-02T09:45:32.513Z,15.38
2023-11-02T09:46:32.389Z,15.52
2023-11-02T09:47:32.406Z,15.76
2023-11-02T09:48:32.514Z,15.54
2023-11-02T09:49:32.370Z,15.43
2023-11-02T09:50:32.362Z,15.42
2023-11-02T09:51:32.361Z,15.36
2023-11-02T09:52:32.365Z,15.24
2023-11-02T09:53:32.310Z,15.11
2023-11-02T09:54:38.473Z,15.12
2023-11-02T09:55:33.332Z,15.36
2023-11-02T09:56:32.261Z,15.48
2023-11-02T09:57:32.281Z,15.56
2023-11-02T09:58:32.306Z,15.24
2023-11-02T09:59:32.219Z,15.35
2023-11-02T10:00:32.263Z,15.23
2023-11-02T10:01:32.193Z,15.23
2023-11-02T10:02:32.235Z,15.13
2023-11-02T10:03:32.289Z,15.03
2023-11-02T10:04:32.281Z,14.83
2023-11-02T10:05:32.227Z,15.05
2023-11-02T10:06:32.255Z,14.99
2023-11-02T10:07:32.133Z,15.03
2023-11-02T10:08:32.183Z,14.68
2023-11-02T10:09:32.175Z,14.88
2023-11-02T10:10:32.132Z,14.67
2023-11-02T10:11:32.145Z,14.93
2023-11-02T10:12:32.132Z,14.93
2023-11-02T10:13:32.060Z,15.12
2023-11-02T10:14:32.098Z,15.42
2023-11-02T10:15:32.136Z,15.57
2023-11-02T10:16:32.024Z,15.72
2023-11-02T10:17:32.133Z,15.59
2023-11-02T10:18:32.142Z,15.56
2023-11-02T10:19:32.078Z,15.72
2023-11-02T10:20:32.013Z,15.76
2023-11-02T10:21:32.081Z,15.67
2023-11-02T10:22:31.996Z,15.67
2023-11-02T10:23:32.024Z,15.49
2023-11-02T10:24:31.966Z,15.19
2023-11-02T10:25:31.948Z,15.39
2023-11-02T10:26:31.936Z,15.23
2023-11-02T10:27:32.137Z,14.90
2023-11-02T10:28:31.895Z,15.06
2023-11-02T10:29:32.018Z,15.31
2023-11-02T10:30:31.950Z,15.52
2023-11-02T10:31:32.084Z,15.67
2023-11-02T10:32:31.931Z,15.76
2023-11-02T10:33:31.928Z,15.92
2023-11-02T10:34:32.798Z,15.84
2023-11-02T10:35:31.819Z,15.64
2023-11-02T10:36:31.897Z,15.42
2023-11-02T10:37:31.862Z,15.21
2023-11-02T10:38:31.797Z,15.23
2023-11-02T10:39:31.816Z,15.28
2023-11-02T10:40:32.232Z,15.17
2023-11-02T10:41:31.802Z,15.36
2023-11-02T10:42:31.804Z,15.68
2023-11-02T10:43:31.723Z,15.93
2023-11-02T10:44:31.849Z,16.15
2023-11-02T10:45:31.822Z,16.12
2023-11-02T10:46:32.628Z,16.01
2023-11-02T10:47:32.072Z,16.00
2023-11-02T10:48:31.760Z,15.67
2023-11-02T10:49:31.694Z,15.79
2023-11-02T10:50:31.693Z,15.72
2023-11-02T10:51:31.726Z,15.86
2023-11-02T10:52:31.689Z,15.86
2023-11-02T10:53:31.688Z,15.79
2023-11-02T10:54:31.747Z,15.76
2023-11-02T10:55:31.612Z,15.93
2023-11-02T10:56:31.598Z,15.89
2023-11-02T10:57:31.601Z,16.00
2023-11-02T10:58:31.607Z,16.14
2023-11-02T10:59:32.443Z,16.07
2023-11-02T11:00:31.577Z,16.00
2023-11-02T11:01:31.584Z,16.18
2023-11-02T11:02:31.572Z,16.22
2023-11-02T11:03:31.646Z,16.06
2023-11-02T11:04:31.555Z,16.26
2023-11-02T11:05:31.478Z,16.35
2023-11-02T11:06:31.504Z,16.27
2023-11-02T11:07:31.535Z,16.40
2023-11-02T11:08:31.432Z,16.48
2023-11-02T11:09:31.466Z,16.58
2023-11-02T11:10:31.401Z,16.40
2023-11-02T11:11:31.409Z,16.40
2023-11-02T11:12:31.407Z,16.23
2023-11-02T11:13:31.432Z,16.06
2023-11-02T11:14:31.368Z,16.15
2023-11-02T11:15:31.381Z,16.11
2023-11-02T11:16:31.349Z,16.07
2023-11-02T11:17:31.382Z,16.44
2023-11-02T11:18:31.403Z,16.07
2023-11-02T11:19:31.374Z,16.48
2023-11-02T11:20:31.289Z,16.65
2023-11-02T11:21:31.303Z,16.23
2023-11-02T11:22:31.305Z,16.18
2023-11-02T11:23:31.270Z,16.27
2023-11-02T11:24:31.348Z,16.23
2023-11-02T11:25:31.259Z,16.52
2023-11-02T11:26:31.222Z,16.93
2023-11-02T11:27:31.260Z,16.41
2023-11-02T11:28:31.252Z,16.20
2023-11-02T11:29:31.196Z,16.12
2023-11-02T11:30:31.227Z,16.20
2023-11-02T11:31:31.247Z,16.01
2023-11-02T11:32:31.275Z,16.06
2023-11-02T11:33:31.179Z,16.44
2023-11-02T11:34:31.368Z,16.50
2023-11-02T11:35:31.173Z,16.20
2023-11-02T11:36:31.236Z,16.31
2023-11-02T11:37:31.225Z,16.18
2023-11-02T11:38:31.251Z,16.12
2023-11-02T11:39:31.156Z,16.34
2023-11-02T11:40:31.257Z,16.22
2023-11-02T11:41:31.102Z,16.18
2023-11-02T11:42:31.141Z,16.30
2023-11-02T11:43:31.038Z,16.42
2023-11-02T11:44:31.026Z,16.55
2023-11-02T11:45:31.014Z,16.48
2023-11-02T11:46:30.995Z,16.37
2023-11-02T11:47:31.012Z,16.15
2023-11-02T11:48:31.788Z,16.15
2023-11-02T11:49:31.025Z,16.16
2023-11-02T11:50:31.040Z,15.99
2023-11-02T11:51:30.961Z,15.89
2023-11-02T11:52:30.962Z,16.04
2023-11-02T11:53:31.047Z,16.41
2023-11-02T11:54:30.935Z,16.09
2023-11-02T11:55:30.907Z,16.16
2023-11-02T11:56:30.887Z,15.92
2023-11-02T11:57:31.458Z,15.85
2023-11-02T11:58:31.035Z,16.18
2023-11-02T11:59:30.878Z,16.12
2023-11-02T12:00:30.923Z,15.84
2023-11-02T12:01:30.886Z,16.14
2023-11-02T12:02:30.846Z,15.93
2023-11-02T12:03:30.837Z,16.26
2023-11-02T12:04:30.805Z,16.50
2023-11-02T12:05:30.911Z,16.04
2023-11-02T12:06:30.862Z,16.04
2023-11-02T12:07:30.845Z,16.06
2023-11-02T12:08:30.780Z,16.16
2023-11-02T12:09:30.789Z,16.27
2023-11-02T12:10:30.737Z,16.00
2023-11-02T12:11:30.755Z,16.01
2023-11-02T12:12:30.712Z,16.18
2023-11-02T12:13:30.864Z,16.01
2023-11-02T12:14:31.208Z,15.88
2023-11-02T12:15:30.772Z,15.85
2023-11-02T12:16:30.704Z,16.15
2023-11-02T12:17:30.710Z,15.99
2023-11-02T12:18:30.662Z,15.85
2023-11-02T12:19:31.367Z,16.37
2023-11-02T12:20:30.652Z,16.25
2023-11-02T12:21:30.646Z,16.18
2023-11-02T12:22:30.586Z,16.09
2023-11-02T12:23:30.612Z,16.18
2023-11-02T12:24:30.633Z,16.33
2023-11-02T12:25:30.578Z,15.94
2023-11-02T12:26:30.564Z,16.26
2023-11-02T12:27:30.530Z,16.42
2023-11-02T12:28:30.541Z,16.33
2023-11-02T12:29:30.541Z,16.42
2023-11-02T12:30:30.626Z,16.20
2023-11-02T12:31:30.527Z,16.45
2023-11-02T12:32:30.518Z,16.52
2023-11-02T12:33:30.515Z,16.68
2023-11-02T12:34:30.562Z,16.31
2023-11-02T12:35:30.434Z,16.16
2023-11-02T12:36:30.419Z,16.23
2023-11-02T12:37:31.004Z,16.06
2023-11-02T12:38:30.425Z,16.44
2023-11-02T12:39:30.406Z,16.52
2023-11-02T12:40:30.391Z,16.65
2023-11-02T12:41:30.362Z,16.52
2023-11-02T12:42:30.407Z,16.62
2023-11-02T12:43:30.450Z,16.12
2023-11-02T12:44:30.335Z,16.25
2023-11-02T12:45:30.341Z,16.50
2023-11-02T12:46:30.374Z,16.52
2023-11-02T12:47:30.342Z,16.70
2023-11-02T12:48:30.494Z,16.68
2023-11-02T12:49:30.388Z,16.55
2023-11-02T12:50:30.291Z,16.44
2023-11-02T12:51:30.525Z,16.55
2023-11-02T12:52:30.281Z,16.67